Time;durP1;ratioP1;P1;durP2;ratioP2;P2;SDS_P1;SDS_P2;PMS_P1;PMS_P2;Temp;Humidity;BMP_temperature;BMP_pressure;BME280_temperature;BME280_humidity;BME280_pressure;Samples;Min_cycle;Max_cycle;Signal;HPM_P1;HPM_P2
2021/12/24 00:00:42;;;;;;;5.07;3.50;;;5.70;99.90;;;;;;5047416;28;20037;-77
2021/12/24 00:03:08;;;;;;;5.85;4.47;;;5.60;99.90;;;;;;5054821;28;20041;-78
2021/12/24 00:05:34;;;;;;;6.22;3.30;;;5.70;99.90;;;;;;5051691;28;20045;-83
2021/12/24 00:08:00;;;;;;;5.60;4.25;;;5.70;99.90;;;;;;5047156;28;20077;-81
2021/12/24 00:10:26;;;;;;;6.72;3.78;;;5.60;99.90;;;;;;5046201;28;20144;-77
2021/12/24 00:13:00;;;;;;;6.65;3.35;;;5.60;99.90;;;;;;5047754;28;20049;-84
2021/12/24 00:18:10;;;;;;;7.40;4.28;;;5.60;99.90;;;;;;5040981;28;20039;-81
2021/12/24 00:35:04;;;;;;;3.70;2.28;;;5.60;99.90;;;;;;5047363;28;20135;-78
2021/12/24 00:36:58;;;;;;;3.70;2.90;;;5.60;99.90;;;;;;5041316;28;20063;-82
2021/12/24 00:39:23;;;;;;;6.72;3.35;;;5.80;99.90;;;;;;5029263;28;20462;-82
2021/12/24 00:41:49;;;;;;;6.45;4.53;;;5.80;99.90;;;;;;5049318;28;20041;-83
2021/12/24 00:44:15;;;;;;;4.95;3.60;;;6.10;99.90;;;;;;5051455;28;20040;-84
2021/12/24 00:46:40;;;;;;;2.97;2.67;;;5.80;99.90;;;;;;5018348;28;20041;-81
2021/12/24 00:49:06;;;;;;;8.75;4.25;;;5.80;99.90;;;;;;5037313;28;20398;-83
2021/12/24 00:51:54;;;;;;;4.53;3.95;;;5.90;99.90;;;;;;5053205;28;20064;-84
2021/12/24 00:57:03;;;;;;;5.97;3.95;;;5.70;99.90;;;;;;5048109;28;20053;-85
2021/12/24 00:59:29;;;;;;;2.97;2.70;;;5.80;99.90;;;;;;5049483;28;20044;-79
2021/12/24 01:01:55;;;;;;;5.40;3.88;;;5.90;99.90;;;;;;5049151;28;20052;-82
2021/12/24 01:04:20;;;;;;;4.03;2.95;;;6.00;99.90;;;;;;5050097;28;20044;-84
2021/12/24 01:06:46;;;;;;;4.75;2.78;;;6.00;99.90;;;;;;5047339;28;20102;-83
2021/12/24 01:09:12;;;;;;;3.80;2.40;;;5.90;99.90;;;;;;5026232;28;20089;-87
2021/12/24 01:11:38;;;;;;;;;;;6.20;99.90;;;;;;5051110;28;20060;-83
2021/12/24 01:14:04;;;;;;;6.18;3.63;;;5.90;99.90;;;;;;5052243;28;20404;-86
2021/12/24 01:16:40;;;;;;;5.88;5.05;;;6.00;99.90;;;;;;5051290;28;20044;-84
2021/12/24 01:19:20;;;;;;;;;;;6.40;99.90;;;;;;5054255;28;20052;-80
2021/12/24 01:22:16;;;;;;;3.53;2.75;;;6.20;99.90;;;;;;5049769;28;19923;-82
2021/12/24 01:24:45;;;;;;;3.70;2.53;;;;;;;;;;5082504;28;20132;-82
2021/12/24 01:38:13;;;;;;;4.57;2.10;;;5.90;99.90;;;;;;5054549;28;20052;-86
2021/12/24 01:40:53;;;;;;;6.63;3.03;;;6.00;99.90;;;;;;5051219;28;20497;-83
2021/12/24 01:43:20;;;;;;;3.10;2.45;;;6.00;99.90;;;;;;5049578;28;20394;-81
2021/12/24 01:45:49;;;;;;;4.93;2.65;;;6.30;99.90;;;;;;5045107;28;20080;-79
2021/12/24 01:48:15;;;;;;;3.75;2.83;;;6.00;99.90;;;;;;5036190;28;20090;-84
2021/12/24 01:50:50;;;;;;;8.57;2.85;;;6.20;99.90;;;;;;5044961;28;20060;-81
2021/12/24 01:53:19;;;;;;;4.32;3.03;;;6.00;99.90;;;;;;5049777;28;20048;-80
2021/12/24 01:55:48;;;;;;;7.35;2.67;;;6.10;99.90;;;;;;5051404;28;20375;-81
2021/12/24 01:58:26;;;;;;;3.35;2.35;;;6.10;99.90;;;;;;5032830;28;20421;-82
2021/12/24 02:00:55;;;;;;;4.95;2.78;;;6.20;99.90;;;;;;5046537;28;20052;-82
2021/12/24 02:03:22;;;;;;;3.53;2.33;;;6.20;99.90;;;;;;5035492;28;20127;-84
2021/12/24 02:05:48;;;;;;;3.28;2.20;;;6.20;99.90;;;;;;5045228;28;20033;-85
2021/12/24 02:08:16;;;;;;;3.05;2.13;;;6.20;99.90;;;;;;5051124;28;20095;-81
2021/12/24 02:10:42;;;;;;;3.65;2.33;;;6.20;99.90;;;;;;5058770;28;20033;-82
2021/12/24 02:13:08;;;;;;;2.10;1.63;;;6.20;99.90;;;;;;5051604;28;20148;-84
2021/12/24 02:29:07;;;;;;;2.70;2.33;;;6.40;99.90;;;;;;5049377;28;20068;-85
2021/12/24 02:31:33;;;;;;;;;;;6.50;99.90;;;;;;5053038;28;20040;-83
2021/12/24 02:33:59;;;;;;;2.17;1.77;;;6.40;99.90;;;;;;5072571;28;19927;-84
2021/12/24 02:36:27;;;;;;;1.90;1.70;;;6.50;99.90;;;;;;5031153;28;20041;-77
2021/12/24 02:38:53;;;;;;;4.65;2.95;;;6.50;99.90;;;;;;5033874;28;20048;-82
2021/12/24 02:41:20;;;;;;;3.55;2.45;;;6.50;99.90;;;;;;5051356;28;20052;-82
2021/12/24 02:43:47;;;;;;;1.38;1.27;;;6.50;99.90;;;;;;5050247;28;20162;-86
2021/12/24 02:46:25;;;;;;;2.38;1.90;;;6.60;99.90;;;;;;5043498;28;20505;-84
2021/12/24 02:54:04;;;;;;;3.35;2.05;;;6.80;99.90;;;;;;5075533;28;20386;-83
2021/12/24 02:56:39;;;;;;;3.08;2.78;;;6.80;99.90;;;;;;5050032;28;20055;-82
2021/12/24 02:59:11;;;;;;;3.92;2.17;;;6.90;99.90;;;;;;5053049;28;20048;-81
2021/12/24 03:01:43;;;;;;;2.22;1.92;;;6.90;99.90;;;;;;5047047;28;20053;-85
2021/12/24 03:04:10;;;;;;;2.03;1.90;;;6.90;99.90;;;;;;5051418;28;20055;-80
2021/12/24 03:06:40;;;;;;;3.78;2.75;;;6.90;99.90;;;;;;5048255;28;20493;-81
2021/12/24 03:09:07;;;;;;;5.18;2.85;;;6.90;99.90;;;;;;5051910;28;20041;-83
2021/12/24 03:11:35;;;;;;;4.68;1.77;;;6.90;99.90;;;;;;5034441;28;20049;-83
2021/12/24 03:14:02;;;;;;;3.38;2.53;;;7.00;99.90;;;;;;5051568;28;20127;-84
2021/12/24 03:16:28;;;;;;;3.28;2.38;;;7.10;99.90;;;;;;5051230;28;20048;-82
2021/12/24 03:18:54;;;;;;;2.90;1.95;;;7.00;99.90;;;;;;5026721;28;20402;-81
2021/12/24 03:21:32;;;;;;;3.42;2.35;;;7.00;99.90;;;;;;5044171;28;20049;-84
2021/12/24 03:26:34;;;;;;;6.60;3.22;;;7.00;99.90;;;;;;5043210;28;20041;-79
2021/12/24 03:29:02;;;;;;;7.75;3.80;;;7.10;99.90;;;;;;5043407;28;20072;-80
2021/12/24 03:31:28;;;;;;;1.70;1.23;;;7.00;99.90;;;;;;5045381;28;20049;-82
2021/12/24 03:33:54;;;;;;;5.80;2.67;;;7.10;99.90;;;;;;5051408;28;20124;-83
2021/12/24 03:36:22;;;;;;;4.68;1.55;;;7.10;99.90;;;;;;5067286;28;20045;-81
2021/12/24 03:38:48;;;;;;;6.15;3.42;;;7.30;99.90;;;;;;5058206;28;20036;-81
2021/12/24 03:41:14;;;;;;;;;;;7.20;99.90;;;;;;5050529;28;20565;-80
2021/12/24 03:43:40;;;;;;;4.07;2.83;;;7.10;99.90;;;;;;5040928;28;20004;-79
2021/12/24 03:46:09;;;;;;;3.80;3.22;;;7.20;99.90;;;;;;5027306;28;20052;-77
2021/12/24 03:56:29;;;;;;;8.43;3.90;;;7.40;99.90;;;;;;5050319;28;20049;-82
2021/12/24 03:58:54;;;;;;;6.60;3.55;;;7.40;99.90;;;;;;5040981;28;20041;-80
2021/12/24 04:01:20;;;;;;;5.47;3.40;;;7.30;99.90;;;;;;5033431;28;20041;-80
2021/12/24 04:03:46;;;;;;;4.38;3.45;;;7.40;99.90;;;;;;5046649;28;20041;-81
2021/12/24 04:06:12;;;;;;;6.32;4.50;;;7.40;99.90;;;;;;5043615;28;20100;-79
2021/12/24 04:08:37;;;;;;;6.93;4.30;;;7.40;99.90;;;;;;5042715;28;20541;-80
2021/12/24 04:11:04;;;;;;;8.80;4.65;;;7.50;99.90;;;;;;5049238;28;20048;-82
2021/12/24 04:13:31;;;;;;;11.10;5.68;;;7.50;99.90;;;;;;5049510;28;20132;-83
2021/12/24 04:15:56;;;;;;;;;;;7.60;99.90;;;;;;5046811;28;20542;-80
2021/12/24 04:26:37;;;;;;;7.20;3.70;;;7.70;99.90;;;;;;5046843;28;20053;-79
2021/12/24 04:29:04;;;;;;;;;;;7.70;99.90;;;;;;5052746;28;20047;-78
2021/12/24 04:31:42;;;;;;;7.35;4.03;;;7.70;99.90;;;;;;5047473;28;19928;-76
2021/12/24 04:34:08;;;;;;;7.50;4.25;;;7.80;99.90;;;;;;5049540;28;20041;-76
2021/12/24 04:37:30;;;;;;;7.85;4.18;;;7.90;99.90;;;;;;5044300;28;20044;-79
2021/12/24 04:39:48;;;;;;;6.18;4.72;;;7.80;99.90;;;;;;5069083;28;20437;-82
2021/12/24 05:01:30;;;;;;;7.43;4.78;;;8.20;99.90;;;;;;5049048;28;20096;-81
2021/12/24 05:03:57;;;;;;;12.63;8.15;;;8.20;99.90;;;;;;5053176;28;20123;-82
2021/12/24 05:08:52;;;;;;;11.35;7.38;;;8.20;99.90;;;;;;5059393;28;20045;-80
2021/12/24 05:11:19;;;;;;;22.38;10.77;;;8.20;99.90;;;;;;5050030;28;20042;-81
2021/12/24 05:13:45;;;;;;;15.55;8.77;;;8.20;99.90;;;;;;5035155;28;20057;-80
2021/12/24 05:16:21;;;;;;;15.27;8.15;;;8.30;99.90;;;;;;5051629;28;20503;-77
2021/12/24 05:21:42;;;;;;;23.73;9.05;;;8.20;99.90;;;;;;5046931;28;20041;-81
2021/12/24 05:24:16;;;;;;;12.13;5.50;;;8.30;99.90;;;;;;5051325;28;20045;-78
2021/12/24 05:26:49;;;;;;;15.07;6.47;;;8.30;99.90;;;;;;5041480;28;20060;-79
2021/12/24 05:29:16;;;;;;;11.52;7.22;;;8.30;99.90;;;;;;5049139;28;20079;-78
2021/12/24 05:31:43;;;;;;;19.40;8.18;;;8.20;99.90;;;;;;5051015;28;20040;-80
2021/12/24 05:34:09;;;;;;;15.70;8.85;;;8.30;99.90;;;;;;5051213;28;20559;-76
2021/12/24 05:36:35;;;;;;;9.60;5.80;;;8.30;99.90;;;;;;5042979;28;20041;-81
2021/12/24 05:39:01;;;;;;;15.95;7.75;;;8.30;99.90;;;;;;5050224;28;20059;-79
2021/12/24 05:41:27;;;;;;;14.10;6.82;;;8.30;99.90;;;;;;5052006;28;20049;-82
2021/12/24 05:43:53;;;;;;;18.40;8.73;;;8.20;99.90;;;;;;5057627;28;20041;-78
2021/12/24 05:46:19;;;;;;;14.52;6.70;;;8.30;99.90;;;;;;5035261;28;20037;-80
2021/12/24 05:48:45;;;;;;;13.25;6.18;;;8.30;99.90;;;;;;5050658;28;20076;-80
2021/12/24 05:51:12;;;;;;;17.52;8.45;;;8.30;99.90;;;;;;5048872;28;20130;-80
2021/12/24 05:53:38;;;;;;;17.42;8.25;;;8.30;99.90;;;;;;5050437;28;20044;-82
2021/12/24 05:56:04;;;;;;;20.98;8.27;;;8.30;99.90;;;;;;5050809;28;20040;-78
2021/12/24 05:58:30;;;;;;;12.00;6.40;;;8.30;99.90;;;;;;5050840;28;20147;-80
2021/12/24 06:00:56;;;;;;;;;;;8.30;99.90;;;;;;5035237;28;20482;-77
2021/12/24 06:03:22;;;;;;;20.55;7.22;;;8.30;99.90;;;;;;5050010;28;19973;-78
2021/12/24 06:05:48;;;;;;;11.82;8.00;;;8.30;99.90;;;;;;5033368;28;20041;-80
2021/12/24 06:08:14;;;;;;;10.90;6.72;;;8.30;99.90;;;;;;5049474;28;20029;-79
2021/12/24 06:10:41;;;;;;;10.32;4.85;;;8.30;99.90;;;;;;5031237;28;20104;-79
2021/12/24 06:13:07;;;;;;;10.02;5.30;;;8.30;99.90;;;;;;5049770;28;20513;-76
2021/12/24 06:15:41;;;;;;;10.07;6.43;;;8.20;99.90;;;;;;5029741;28;20450;-78
2021/12/24 06:18:13;;;;;;;11.52;4.82;;;8.20;99.90;;;;;;5046311;28;20100;-77
2021/12/24 06:20:40;;;;;;;13.95;6.30;;;8.20;99.90;;;;;;5035906;28;20076;-80
2021/12/24 06:23:08;;;;;;;10.63;6.28;;;8.30;99.90;;;;;;5045547;28;20045;-78
2021/12/24 06:25:34;;;;;;;8.02;4.82;;;8.30;99.90;;;;;;5046587;28;20060;-79
2021/12/24 06:27:59;;;;;;;10.60;5.32;;;8.30;99.90;;;;;;5023660;28;20049;-81
2021/12/24 06:30:29;;;;;;;8.02;4.28;;;8.20;99.90;;;;;;5045396;28;20124;-76
2021/12/24 06:32:59;;;;;;;11.23;5.18;;;8.20;99.90;;;;;;5026088;28;20123;-78
2021/12/24 06:35:26;;;;;;;10.73;4.63;;;8.20;99.90;;;;;;5051490;28;20037;-77
2021/12/24 06:37:53;;;;;;;7.43;4.18;;;8.20;99.90;;;;;;5048427;28;20049;-80
2021/12/24 06:40:19;;;;;;;14.88;4.22;;;8.20;99.90;;;;;;5049997;28;20047;-80
2021/12/24 06:42:45;;;;;;;9.18;2.88;;;8.20;99.90;;;;;;5050414;28;20397;-79
2021/12/24 06:45:11;;;;;;;9.02;4.13;;;8.10;99.90;;;;;;5045033;28;20193;-75
2021/12/24 06:47:37;;;;;;;4.82;2.72;;;8.10;99.90;;;;;;5043684;28;20132;-76
2021/12/24 06:50:04;;;;;;;10.85;5.15;;;8.10;99.90;;;;;;5048961;28;20124;-75
2021/12/24 06:52:30;;;;;;;8.88;4.95;;;8.10;99.90;;;;;;5040445;28;20408;-75
2021/12/24 06:54:55;;;;;;;6.45;4.18;;;8.10;99.90;;;;;;5044870;28;20045;-78
2021/12/24 06:57:23;;;;;;;11.68;4.72;;;8.20;99.90;;;;;;5049609;28;20041;-80
2021/12/24 06:59:49;;;;;;;8.30;4.50;;;8.10;99.90;;;;;;5048073;28;20462;-79
2021/12/24 07:02:15;;;;;;;11.77;4.95;;;8.10;99.90;;;;;;5038795;28;20053;-77
2021/12/24 07:04:41;;;;;;;18.23;6.03;;;8.10;99.90;;;;;;5049381;28;20128;-77
2021/12/24 07:07:07;;;;;;;;;;;8.00;99.90;;;;;;5031976;28;20454;-79
2021/12/24 07:09:33;;;;;;;7.70;4.47;;;8.00;99.90;;;;;;5044761;28;19968;-78
2021/12/24 07:11:59;;;;;;;7.40;4.18;;;8.00;99.90;;;;;;5042902;28;20053;-80
2021/12/24 07:14:25;;;;;;;7.47;3.63;;;8.00;99.90;;;;;;5047662;28;20056;-79
2021/12/24 07:16:51;;;;;;;5.75;4.07;;;8.00;99.90;;;;;;5050367;28;20064;-78
2021/12/24 07:19:17;;;;;;;5.32;3.28;;;8.00;99.90;;;;;;5079944;28;20056;-79
2021/12/24 07:21:43;;;;;;;4.68;2.85;;;8.00;99.90;;;;;;5044996;28;20045;-77
2021/12/24 07:24:09;;;;;;;7.55;3.22;;;7.90;99.90;;;;;;5030264;28;20041;-79
2021/12/24 07:26:35;;;;;;;;;;;7.90;99.90;;;;;;5042574;28;20059;-80
2021/12/24 07:29:01;;;;;;;8.13;3.15;;;7.90;99.90;;;;;;5048443;28;19917;-81
2021/12/24 07:31:26;;;;;;;7.45;3.45;;;7.80;99.90;;;;;;5048816;28;20448;-77
2021/12/24 07:33:52;;;;;;;8.70;3.90;;;7.70;99.90;;;;;;5075054;28;20047;-78
2021/12/24 07:36:18;;;;;;;3.58;2.53;;;7.60;99.90;;;;;;5045774;28;20375;-81
2021/12/24 07:38:44;;;;;;;1.77;1.67;;;7.60;99.90;;;;;;5046762;28;20048;-81
2021/12/24 07:41:09;;;;;;;5.10;1.90;;;7.50;99.90;;;;;;5023332;28;20037;-79
2021/12/24 07:43:35;;;;;;;2.75;1.67;;;7.50;99.90;;;;;;5048085;28;20490;-84
2021/12/24 07:46:01;;;;;;;2.25;2.05;;;7.40;99.90;;;;;;5042098;28;20053;-82
2021/12/24 07:48:28;;;;;;;4.40;2.58;;;7.40;99.90;;;;;;5043296;28;20071;-79
2021/12/24 07:53:23;;;;;;;3.55;2.25;;;7.40;99.90;;;;;;5061932;28;20103;-78
2021/12/24 07:55:49;;;;;;;7.07;4.03;;;7.40;99.90;;;;;;5046246;28;20080;-78
2021/12/24 07:58:17;;;;;;;5.05;3.40;;;7.40;99.90;;;;;;5051855;28;20041;-78
2021/12/24 08:00:44;;;;;;;3.30;2.40;;;7.40;99.90;;;;;;5058193;28;20056;-78
2021/12/24 08:03:10;;;;;;;5.13;2.42;;;7.40;99.90;;;;;;5057445;28;20509;-80
2021/12/24 08:05:39;;;;;;;6.03;3.25;;;7.40;99.90;;;;;;5053229;28;20080;-76
2021/12/24 08:08:07;;;;;;;5.80;3.08;;;7.50;99.90;;;;;;5052462;28;20133;-79
2021/12/24 08:10:34;;;;;;;8.75;3.80;;;7.50;99.90;;;;;;5040896;28;20045;-79
2021/12/24 08:13:01;;;;;;;11.55;3.92;;;7.60;99.90;;;;;;5045774;28;20465;-80
2021/12/24 08:15:28;;;;;;;11.07;3.60;;;7.60;99.90;;;;;;5079842;28;20045;-80
2021/12/24 08:17:54;;;;;;;6.88;4.00;;;7.60;99.90;;;;;;5046179;28;20060;-78
2021/12/24 08:20:24;;;;;;;9.73;4.13;;;7.60;99.90;;;;;;5052045;28;20056;-76
2021/12/24 08:22:51;;;;;;;7.10;2.40;;;7.70;99.90;;;;;;5044735;28;20041;-77
2021/12/24 08:25:18;;;;;;;6.00;3.20;;;7.70;99.90;;;;;;5052397;28;20052;-80
2021/12/24 08:27:44;;;;;;;4.68;3.97;;;7.70;99.90;;;;;;5041815;28;20045;-74
2021/12/24 08:30:10;;;;;;;4.65;2.67;;;7.70;99.90;;;;;;5051595;28;20036;-78
2021/12/24 08:32:39;;;;;;;4.70;2.78;;;7.70;99.90;;;;;;5034511;28;20041;-76
2021/12/24 08:35:17;;;;;;;5.63;3.40;;;7.70;99.90;;;;;;5046688;28;20447;-76
2021/12/24 08:37:43;;;;;;;7.32;3.05;;;7.70;99.90;;;;;;5048754;28;20079;-76
2021/12/24 08:40:10;;;;;;;4.05;3.45;;;7.70;99.90;;;;;;5051681;28;20419;-78
2021/12/24 08:42:35;;;;;;;2.95;2.63;;;7.70;99.90;;;;;;5054779;28;20363;-76
2021/12/24 08:45:02;;;;;;;10.18;4.43;;;7.70;99.90;;;;;;5035986;28;20045;-76
2021/12/24 08:47:27;;;;;;;4.95;3.03;;;7.70;99.90;;;;;;5050632;28;20084;-78
2021/12/24 08:49:56;;;;;;;7.30;3.50;;;7.70;99.90;;;;;;5048968;28;20064;-76
2021/12/24 08:52:22;;;;;;;3.05;2.58;;;7.70;99.90;;;;;;5054527;28;20061;-79
2021/12/24 08:54:48;;;;;;;5.05;3.25;;;7.70;99.90;;;;;;5051621;28;20402;-81
2021/12/24 08:57:26;;;;;;;3.30;2.47;;;7.70;99.90;;;;;;5048252;28;20049;-79
2021/12/24 08:59:52;;;;;;;8.73;3.78;;;7.70;99.90;;;;;;5054634;28;20048;-76
2021/12/24 09:02:18;;;;;;;7.07;3.50;;;7.70;99.90;;;;;;5050891;28;20057;-79
2021/12/24 09:04:44;;;;;;;8.75;3.08;;;7.70;99.90;;;;;;5044562;28;20045;-77
2021/12/24 09:07:10;;;;;;;6.82;3.85;;;7.70;99.90;;;;;;5052227;28;20184;-80
2021/12/24 09:09:36;;;;;;;;;;;7.70;99.90;;;;;;5045975;28;20103;-78
2021/12/24 09:12:02;;;;;;;7.82;3.42;;;7.70;99.90;;;;;;5047987;28;19925;-80
2021/12/24 09:14:28;;;;;;;5.03;3.58;;;7.70;99.90;;;;;;5044998;28;20379;-79
2021/12/24 09:17:02;;;;;;;3.40;2.97;;;7.70;99.90;;;;;;5040593;28;20397;-78
2021/12/24 09:19:30;;;;;;;1.90;1.17;;;7.60;99.90;;;;;;5048950;28;20045;-77
2021/12/24 09:21:57;;;;;;;2.90;1.75;;;7.60;99.90;;;;;;5052823;28;20056;-82
2021/12/24 09:24:25;;;;;;;1.88;1.70;;;7.30;99.90;;;;;;5027143;28;20048;-81
2021/12/24 09:26:56;;;;;;;3.35;2.25;;;7.00;99.90;;;;;;5050612;28;20502;-79
2021/12/24 09:29:22;;;;;;;1.58;1.38;;;6.80;99.90;;;;;;5037136;28;20083;-80
2021/12/24 09:31:48;;;;;;;8.50;2.33;;;6.60;99.90;;;;;;5049499;28;20047;-81
2021/12/24 09:34:14;;;;;;;2.13;1.52;;;6.40;99.90;;;;;;5028554;28;20057;-82
2021/12/24 09:36:39;;;;;;;2.05;1.58;;;6.20;99.90;;;;;;5035755;28;20043;-80
2021/12/24 09:39:06;;;;;;;3.83;2.15;;;6.00;99.90;;;;;;5050861;28;20131;-80
2021/12/24 09:41:32;;;;;;;2.25;1.48;;;6.00;99.90;;;;;;5053774;28;20047;-80
2021/12/24 09:44:00;;;;;;;3.75;2.38;;;5.90;99.90;;;;;;5033374;28;20069;-80
2021/12/24 09:46:28;;;;;;;2.92;1.60;;;5.80;99.90;;;;;;5047792;28;20045;-80
2021/12/24 09:48:54;;;;;;;2.38;1.73;;;5.80;99.90;;;;;;5026956;28;20457;-80
2021/12/24 09:51:25;;;;;;;0.90;0.90;;;5.80;99.90;;;;;;5049021;28;20536;-79
2021/12/24 09:53:51;;;;;;;2.00;1.35;;;5.70;99.90;;;;;;5061268;28;20028;-81
2021/12/24 09:56:17;;;;;;;1.27;1.17;;;5.70;99.90;;;;;;5033671;28;20040;-81
2021/12/24 09:58:43;;;;;;;1.98;1.63;;;5.70;99.90;;;;;;5033080;28;20106;-83
2021/12/24 10:01:55;;;;;;;3.20;1.95;;;5.60;99.90;;;;;;5051218;28;20071;-81
2021/12/24 10:04:25;;;;;;;1.38;1.27;;;5.60;99.90;;;;;;5035539;28;20052;-83
2021/12/24 10:07:06;;;;;;;2.15;1.80;;;5.60;99.90;;;;;;5041519;28;20060;-81
2021/12/24 10:09:37;;;;;;;1.80;1.63;;;5.50;99.90;;;;;;5038518;28;20041;-82
2021/12/24 10:12:27;;;;;;;2.78;2.00;;;5.60;99.90;;;;;;5031004;28;20115;-81
2021/12/24 10:14:59;;;;;;;2.05;1.90;;;5.60;99.90;;;;;;5038499;28;20049;-82
2021/12/24 10:17:29;;;;;;;2.15;1.70;;;5.60;99.90;;;;;;5050586;28;20052;-82
2021/12/24 10:20:13;;;;;;;5.55;1.83;;;5.60;99.90;;;;;;5045788;28;20049;-81
2021/12/24 10:22:46;;;;;;;4.05;1.80;;;5.60;99.90;;;;;;5051290;28;20040;-83
2021/12/24 10:25:13;;;;;;;1.38;0.95;;;5.60;99.90;;;;;;5049003;28;20543;-81
2021/12/24 10:27:41;;;;;;;6.32;1.50;;;5.60;99.90;;;;;;5048565;28;20052;-79
2021/12/24 10:30:34;;;;;;;2.67;1.38;;;5.50;99.90;;;;;;5042837;28;20029;-83
2021/12/24 10:33:10;;;;;;;3.95;2.05;;;5.50;99.90;;;;;;5039924;28;20057;-82
2021/12/24 10:35:36;;;;;;;3.53;1.63;;;5.50;99.90;;;;;;5049463;28;20041;-81
2021/12/24 10:38:20;;;;;;;3.97;2.33;;;5.40;99.90;;;;;;5032094;28;20501;-82
2021/12/24 10:41:04;;;;;;;3.17;1.83;;;5.40;99.90;;;;;;5050844;28;20095;-83
2021/12/24 10:43:36;;;;;;;2.47;1.83;;;5.40;99.90;;;;;;5041447;28;20466;-82
2021/12/24 10:46:17;;;;;;;3.13;1.95;;;5.40;99.90;;;;;;5050373;28;20045;-82
2021/12/24 10:49:02;;;;;;;1.63;1.52;;;5.30;99.90;;;;;;5047087;28;20045;-82
2021/12/24 10:54:18;;;;;;;2.67;1.92;;;5.30;99.90;;;;;;4995799;28;20629;-80
2021/12/24 10:56:44;;;;;;;2.17;1.73;;;5.30;99.90;;;;;;5048316;28;20076;-80
2021/12/24 10:59:10;;;;;;;1.48;1.38;;;5.20;99.90;;;;;;5050312;28;20126;-77
2021/12/24 11:01:36;;;;;;;1.50;1.40;;;5.20;99.90;;;;;;5044223;28;20041;-78
2021/12/24 11:04:01;;;;;;;1.90;1.42;;;5.20;99.90;;;;;;5041005;28;20041;-79
2021/12/24 11:06:31;;;;;;;4.22;2.33;;;5.20;99.90;;;;;;5044759;28;20060;-77
2021/12/24 11:08:59;;;;;;;1.65;1.35;;;5.20;99.90;;;;;;5049749;28;20172;-79
2021/12/24 11:11:35;;;;;;;1.55;1.45;;;5.20;99.90;;;;;;5049740;28;20053;-79
2021/12/24 11:14:01;;;;;;;1.98;1.88;;;5.20;99.90;;;;;;5050457;28;20060;-77
2021/12/24 11:16:27;;;;;;;1.35;1.25;;;5.20;99.90;;;;;;5046620;28;20388;-77
2021/12/24 11:19:01;;;;;;;2.63;1.83;;;5.10;99.90;;;;;;5078715;28;20049;-77
2021/12/24 11:21:29;;;;;;;1.45;1.35;;;5.10;99.90;;;;;;5048605;28;20041;-79
2021/12/24 11:23:55;;;;;;;2.38;1.42;;;5.00;99.90;;;;;;5047932;28;20112;-81
2021/12/24 11:26:28;;;;;;;2.95;1.60;;;5.00;99.90;;;;;;5044524;28;20073;-78
2021/12/24 11:28:55;;;;;;;1.10;1.02;;;5.00;99.90;;;;;;5046505;28;20102;-81
2021/12/24 11:31:28;;;;;;;1.75;1.60;;;5.00;99.90;;;;;;5046193;28;20098;-77
2021/12/24 11:33:55;;;;;;;2.78;1.77;;;5.00;99.90;;;;;;5046924;28;20044;-77
2021/12/24 11:36:23;;;;;;;2.42;1.77;;;5.00;99.90;;;;;;5046390;28;20087;-78
2021/12/24 11:38:51;;;;;;;1.90;1.73;;;5.00;99.90;;;;;;5038564;28;20415;-79
2021/12/24 11:41:19;;;;;;;1.88;1.63;;;5.00;99.90;;;;;;5046035;28;20138;-77
2021/12/24 11:43:48;;;;;;;3.72;2.15;;;5.00;99.90;;;;;;5048416;28;20041;-78
2021/12/24 11:46:16;;;;;;;5.55;3.17;;;5.00;99.90;;;;;;5045630;28;20037;-79
2021/12/24 11:48:44;;;;;;;2.78;2.50;;;5.00;99.90;;;;;;5050235;28;20373;-78
2021/12/24 11:51:18;;;;;;;2.35;1.98;;;5.00;99.90;;;;;;5071041;28;20414;-75
2021/12/24 11:53:44;;;;;;;3.33;1.85;;;5.00;99.90;;;;;;5054650;28;20049;-76
2021/12/24 11:56:11;;;;;;;;;;;5.00;99.90;;;;;;5049624;28;20044;-79
2021/12/24 11:58:49;;;;;;;;;;;5.00;99.90;;;;;;5050230;28;20290;-77
2021/12/24 12:01:21;;;;;;;1.30;1.20;;;5.00;99.90;;;;;;5040737;28;19952;-81
2021/12/24 12:03:51;;;;;;;2.83;2.50;;;5.00;99.90;;;;;;5045547;28;20102;-78
2021/12/24 12:06:17;;;;;;;5.10;2.65;;;5.00;99.90;;;;;;5059572;28;20041;-81
2021/12/24 12:08:44;;;;;;;1.55;1.45;;;5.00;99.90;;;;;;5049021;28;20453;-79
2021/12/24 12:11:13;;;;;;;2.10;1.65;;;5.00;99.90;;;;;;5034370;28;20045;-80
2021/12/24 12:13:44;;;;;;;2.95;1.70;;;5.10;99.90;;;;;;5050732;28;20409;-83
2021/12/24 12:16:13;;;;;;;2.53;2.08;;;5.10;99.90;;;;;;5046106;28;20040;-80
2021/12/24 12:18:44;;;;;;;1.50;1.30;;;5.10;99.90;;;;;;5037453;28;20039;-76
2021/12/24 12:21:12;;;;;;;1.25;1.10;;;5.10;99.90;;;;;;5042152;28;20048;-81
2021/12/24 12:26:52;;;;;;;2.53;1.10;;;5.20;99.90;;;;;;5049257;28;20045;-77
2021/12/24 12:29:30;;;;;;;2.35;2.15;;;5.20;99.90;;;;;;5030545;28;20042;-83
2021/12/24 12:32:14;;;;;;;4.97;1.95;;;5.20;99.90;;;;;;5027132;28;20041;-78
2021/12/24 12:34:43;;;;;;;2.85;1.75;;;5.20;99.90;;;;;;5076107;28;20037;-79
2021/12/24 12:37:31;;;;;;;4.10;1.98;;;5.20;99.90;;;;;;5042682;28;20438;-79
2021/12/24 12:40:06;;;;;;;1.45;1.30;;;5.20;99.90;;;;;;5016523;28;20098;-79
2021/12/24 12:42:55;;;;;;;1.90;1.70;;;5.30;99.90;;;;;;5043680;28;20544;-81
2021/12/24 12:45:44;;;;;;;2.70;2.15;;;5.30;99.90;;;;;;5052674;28;20398;-81
2021/12/24 12:48:22;;;;;;;2.47;1.58;;;5.30;99.90;;;;;;5052156;28;20090;-78
2021/12/24 12:51:00;;;;;;;1.27;1.17;;;5.40;99.90;;;;;;5057781;28;20131;-80
2021/12/24 12:53:34;;;;;;;1.70;1.50;;;5.40;99.90;;;;;;5051627;28;20051;-77
2021/12/24 12:56:30;;;;;;;2.25;1.80;;;5.40;99.90;;;;;;5051960;28;20178;-81
2021/12/24 12:59:05;;;;;;;5.15;2.25;;;5.40;99.90;;;;;;5058929;28;20098;-80
2021/12/24 13:01:33;;;;;;;2.10;1.85;;;5.40;99.90;;;;;;5058191;28;20521;-78
2021/12/24 13:04:03;;;;;;;2.05;1.63;;;5.40;99.90;;;;;;5043525;28;20052;-81
2021/12/24 13:06:36;;;;;;;1.67;1.58;;;5.50;99.90;;;;;;5052342;28;20041;-83
2021/12/24 13:09:05;;;;;;;3.65;1.92;;;5.50;99.90;;;;;;5051991;28;20126;-81
2021/12/24 13:11:40;;;;;;;3.08;2.17;;;5.60;99.90;;;;;;5053136;28;20044;-80
2021/12/24 13:14:06;;;;;;;3.42;2.13;;;5.60;99.90;;;;;;5044289;28;20050;-78
2021/12/24 13:16:46;;;;;;;3.80;2.67;;;5.50;99.90;;;;;;5081854;28;20052;-81
2021/12/24 13:24:46;;;;;;;2.75;1.75;;;5.50;99.90;;;;;;5047048;28;20371;-78
2021/12/24 13:27:12;;;;;;;1.77;1.63;;;5.50;99.90;;;;;;5030589;28;20086;-81
2021/12/24 13:29:37;;;;;;;1.65;1.55;;;5.50;99.90;;;;;;5034165;28;20033;-79
2021/12/24 13:32:04;;;;;;;;;;;5.60;99.90;;;;;;5050326;28;20064;-78
2021/12/24 13:34:30;;;;;;;3.83;1.80;;;5.60;99.90;;;;;;5081749;28;19916;-79
2021/12/24 13:37:00;;;;;;;5.93;2.22;;;5.60;99.90;;;;;;5052019;28;20037;-79
2021/12/24 13:39:26;;;;;;;3.40;2.03;;;5.60;99.90;;;;;;5030598;28;20041;-78
2021/12/24 13:42:09;;;;;;;2.97;1.90;;;5.70;99.90;;;;;;5048447;28;20048;-79
2021/12/24 13:44:38;;;;;;;2.90;2.42;;;5.70;99.90;;;;;;5048465;28;20045;-79
2021/12/24 13:47:21;;;;;;;2.05;1.85;;;5.70;99.90;;;;;;5053232;28;20045;-83
2021/12/24 13:50:12;;;;;;;1.65;1.55;;;5.70;99.90;;;;;;5044420;28;20034;-83
2021/12/24 13:55:27;;;;;;;2.70;2.17;;;5.70;99.90;;;;;;5048470;28;20045;-82
2021/12/24 13:58:05;;;;;;;2.80;1.92;;;5.70;99.90;;;;;;5053273;28;20040;-80
2021/12/24 14:00:35;;;;;;;3.58;2.95;;;5.70;99.90;;;;;;5053702;28;20052;-77
2021/12/24 14:03:07;;;;;;;3.38;2.42;;;5.70;99.90;;;;;;5044670;28;20041;-83
2021/12/24 14:05:43;;;;;;;2.58;2.38;;;5.70;99.90;;;;;;5030694;28;20041;-82
2021/12/24 14:08:14;;;;;;;4.90;1.67;;;5.70;99.90;;;;;;5046169;28;20049;-80
2021/12/24 14:10:42;;;;;;;3.08;1.98;;;5.70;99.90;;;;;;5036662;28;20037;-81
2021/12/24 14:13:19;;;;;;;3.38;1.77;;;5.80;99.90;;;;;;5049388;28;20050;-79
2021/12/24 14:16:02;;;;;;;2.25;2.05;;;5.70;99.90;;;;;;5050437;28;20375;-81
2021/12/24 14:24:10;;;;;;;1.60;1.38;;;5.60;99.90;;;;;;5050874;28;20091;-81
2021/12/24 14:26:37;;;;;;;1.75;1.40;;;5.60;99.90;;;;;;5039258;28;20113;-80
2021/12/24 14:29:06;;;;;;;3.22;2.17;;;5.60;99.90;;;;;;5052182;28;20056;-82
2021/12/24 14:31:49;;;;;;;1.17;1.08;;;5.60;99.90;;;;;;5052057;28;20037;-82
2021/12/24 14:34:31;;;;;;;1.30;1.20;;;5.60;99.90;;;;;;5051813;28;20045;-79
2021/12/24 14:37:06;;;;;;;2.33;1.50;;;5.60;99.90;;;;;;5074839;28;20052;-79
2021/12/24 14:39:37;;;;;;;0.90;0.90;;;5.60;99.90;;;;;;5031648;28;20509;-83
2021/12/24 14:42:16;;;;;;;0.98;0.98;;;5.60;99.90;;;;;;5039963;28;20480;-81
2021/12/24 14:44:43;;;;;;;0.93;0.93;;;5.50;99.90;;;;;;5057538;28;20053;-84
2021/12/24 14:47:10;;;;;;;1.17;1.10;;;5.50;99.90;;;;;;5038300;28;20367;-83
2021/12/24 14:49:39;;;;;;;2.97;2.08;;;5.50;99.90;;;;;;5029462;28;20033;-86
2021/12/24 14:52:25;;;;;;;1.25;1.15;;;5.50;99.90;;;;;;5047780;28;20399;-83
2021/12/24 14:55:16;;;;;;;3.78;1.73;;;5.50;99.90;;;;;;5022888;28;20082;-86
2021/12/24 14:58:00;;;;;;;1.63;1.50;;;5.40;99.90;;;;;;5044119;28;20048;-83
2021/12/24 15:00:36;;;;;;;2.70;2.17;;;5.40;99.90;;;;;;5051291;28;20052;-86
2021/12/24 15:03:15;;;;;;;2.45;1.70;;;5.50;99.90;;;;;;5048938;28;20160;-85
2021/12/24 15:05:44;;;;;;;2.80;2.08;;;5.30;99.90;;;;;;5050364;28;20044;-85
2021/12/24 15:08:19;;;;;;;3.30;1.70;;;5.30;99.90;;;;;;5031590;28;20048;-85